WXForecasting.com
Aberdeen, SD - Weather Station Data
Daily Summary for May 18, 2017 Units:  English    Metric   Both
« Previous Day
Next Day »
Daily Weekly Monthly Yearly Custom
  High: Low: Average:
Temperature: 62.9 °F 43.0 °F 53 °F
Dew Point: 44.0 °F 34.0 °F 38.1 °F
Humidity: 79 % 37 % 59 %
Wind Speed: 16.0 mph 1.0 mph 8.1 mph
Wind Gust: 27.0 mph - -
Wind:- - ESE
Pressure: 30.18 in 29.76 in -
Precipitation: 0.00 in    
Historical Graphs
 
 
Tabular Data for May 18, 2017
Time Temperature Dew Point Pressure Wind Wind Speed Wind Gust Humidity Rainfall Rate (Hourly) solar Conditions
00:08 52.3 °F 44.0 °F 29.76 in NE 14.0 mph 24.0 mph 74 % 0.00 in 0 W/m2
00:23 52.1 °F 44.0 °F 29.77 in NE 16.0 mph 23.0 mph 74 % 0.00 in 0 W/m2
00:39 51.5 °F 43.0 °F 29.79 in NNW 11.0 mph 22.0 mph 74 % 0.00 in 0 W/m2
00:54 51.0 °F 43.0 °F 29.80 in North 11.0 mph 26.0 mph 74 % 0.00 in 0 W/m2
01:09 50.7 °F 43.0 °F 29.81 in NNW 6.0 mph 19.0 mph 75 % 0.00 in 0 W/m2
01:24 50.3 °F 42.0 °F 29.82 in NNE 12.0 mph 26.0 mph 74 % 0.00 in 0 W/m2
01:39 50.1 °F 42.0 °F 29.82 in North 11.0 mph 20.0 mph 74 % 0.00 in 0 W/m2
01:54 49.7 °F 42.0 °F 29.83 in NNW 11.0 mph 22.0 mph 74 % 0.00 in 0 W/m2
02:09 49.1 °F 41.0 °F 29.83 in NNW 14.0 mph 20.0 mph 74 % 0.00 in 0 W/m2
02:24 48.7 °F 41.0 °F 29.84 in North 3.0 mph 20.0 mph 74 % 0.00 in 0 W/m2
02:39 48.4 °F 40.0 °F 29.84 in North 11.0 mph 23.0 mph 74 % 0.00 in 0 W/m2
02:54 47.9 °F 40.0 °F 29.84 in NNW 10.0 mph 23.0 mph 74 % 0.00 in 0 W/m2
03:09 47.5 °F 40.0 °F 29.85 in NNE 12.0 mph 21.0 mph 74 % 0.00 in 0 W/m2
03:24 47.0 °F 39.0 °F 29.85 in NNW 8.0 mph 20.0 mph 75 % 0.00 in 0 W/m2
03:39 46.6 °F 39.0 °F 29.86 in North 13.0 mph 22.0 mph 75 % 0.00 in 0 W/m2
03:54 46.4 °F 39.0 °F 29.87 in NNW 16.0 mph 22.0 mph 75 % 0.00 in 0 W/m2
04:10 46.3 °F 39.0 °F 29.88 in North 8.0 mph 23.0 mph 75 % 0.00 in 0 W/m2
04:24 46.0 °F 39.0 °F 29.88 in NNE 11.0 mph 27.0 mph 75 % 0.00 in 0 W/m2
04:39 45.5 °F 38.0 °F 29.89 in NNW 10.0 mph 22.0 mph 76 % 0.00 in 0 W/m2
04:55 44.9 °F 38.0 °F 29.90 in North 13.0 mph 17.0 mph 77 % 0.00 in 0 W/m2
05:10 44.5 °F 38.0 °F 29.91 in North 11.0 mph 21.0 mph 77 % 0.00 in 0 W/m2
05:25 44.1 °F 38.0 °F 29.92 in NNE 12.0 mph 20.0 mph 78 % 0.00 in 0 W/m2
05:40 43.8 °F 37.0 °F 29.92 in NNE 5.0 mph 15.0 mph 78 % 0.00 in 0 W/m2
05:55 43.6 °F 38.0 °F 29.93 in NNE 9.0 mph 16.0 mph 79 % 0.00 in 0 W/m2
06:10 43.4 °F 37.0 °F 29.94 in NNE 10.0 mph 19.0 mph 79 % 0.00 in 7 W/m2
06:25 43.3 °F 37.0 °F 29.96 in North 8.0 mph 22.0 mph 78 % 0.00 in 19 W/m2
06:40 43.2 °F 37.0 °F 29.96 in North 10.0 mph 19.0 mph 78 % 0.00 in 33 W/m2
06:55 43.0 °F 37.0 °F 29.97 in NNE 9.0 mph 22.0 mph 78 % 0.00 in 49 W/m2
07:10 43.0 °F 37.0 °F 29.98 in North 8.0 mph 21.0 mph 78 % 0.00 in 76 W/m2
07:25 43.0 °F 37.0 °F 29.98 in NNE 8.0 mph 22.0 mph 78 % 0.00 in 84 W/m2
07:40 43.3 °F 37.0 °F 29.99 in NW 9.0 mph 23.0 mph 78 % 0.00 in 132 W/m2
07:55 43.5 °F 37.0 °F 30.00 in NNW 14.0 mph 21.0 mph 77 % 0.00 in 127 W/m2
08:10 44.0 °F 37.0 °F 30.02 in NNE 4.0 mph 17.0 mph 76 % 0.00 in 292 W/m2
08:25 44.4 °F 37.0 °F 30.02 in NNE 1.0 mph 16.0 mph 75 % 0.00 in 153 W/m2
08:40 45.2 °F 37.0 °F 30.03 in North 5.0 mph 19.0 mph 74 % 0.00 in 403 W/m2
08:55 45.8 °F 37.0 °F 30.05 in North 5.0 mph 18.0 mph 72 % 0.00 in 450 W/m2
09:10 46.3 °F 38.0 °F 30.06 in North 11.0 mph 17.0 mph 72 % 0.00 in 202 W/m2
09:25 47.4 °F 38.0 °F 30.07 in North 15.0 mph 16.0 mph 71 % 0.00 in 520 W/m2
09:40 48.8 °F 39.0 °F 30.07 in North 4.0 mph 15.0 mph 69 % 0.00 in 619 W/m2
09:55 49.1 °F 39.0 °F 30.08 in NNW 11.0 mph 17.0 mph 68 % 0.00 in 599 W/m2
10:10 50.0 °F 40.0 °F 30.09 in NNE 7.0 mph 17.0 mph 69 % 0.00 in 649 W/m2
10:25 50.3 °F 40.0 °F 30.08 in NNE 5.0 mph 17.0 mph 67 % 0.00 in 257 W/m2
10:41 51.4 °F 41.0 °F 30.09 in North 8.0 mph 17.0 mph 67 % 0.00 in 721 W/m2
10:56 52.4 °F 40.0 °F 30.09 in NNE 5.0 mph 19.0 mph 64 % 0.00 in 788 W/m2
11:11 52.7 °F 41.0 °F 30.08 in North 8.0 mph 20.0 mph 64 % 0.00 in 803 W/m2
11:26 54.0 °F 42.0 °F 30.09 in NE 5.0 mph 21.0 mph 63 % 0.00 in 831 W/m2
11:41 54.0 °F 41.0 °F 30.09 in NNE 11.0 mph 22.0 mph 62 % 0.00 in 858 W/m2
11:56 54.9 °F 41.0 °F 30.10 in NNW 14.0 mph 21.0 mph 61 % 0.00 in 865 W/m2
12:11 55.4 °F 41.0 °F 30.10 in NNW 6.0 mph 18.0 mph 59 % 0.00 in 867 W/m2
12:26 56.0 °F 41.0 °F 30.11 in NNE 9.0 mph 23.0 mph 57 % 0.00 in 893 W/m2
12:41 56.9 °F 42.0 °F 30.11 in North 3.0 mph 19.0 mph 58 % 0.00 in 921 W/m2
12:56 57.1 °F 41.0 °F 30.11 in NNE 8.0 mph 23.0 mph 56 % 0.00 in 835 W/m2
13:11 57.1 °F 40.0 °F 30.10 in NNE 4.0 mph 20.0 mph 54 % 0.00 in 541 W/m2
13:26 57.7 °F 41.0 °F 30.09 in NNE 9.0 mph 22.0 mph 54 % 0.00 in 684 W/m2
13:41 58.1 °F 40.0 °F 30.09 in NNE 9.0 mph 19.0 mph 52 % 0.00 in 983 W/m2
13:56 60.0 °F 40.0 °F 30.09 in North 6.0 mph 21.0 mph 48 % 0.00 in 962 W/m2
14:11 59.6 °F 39.0 °F 30.09 in NE 15.0 mph 21.0 mph 46 % 0.00 in 712 W/m2
14:26 58.3 °F 37.0 °F 30.09 in North 16.0 mph 21.0 mph 46 % 0.00 in 559 W/m2
14:56 61.2 °F 39.0 °F 30.09 in NE 13.0 mph 17.0 mph 44 % 0.00 in 860 W/m2
15:11 61.3 °F 39.0 °F 30.09 in ENE 6.0 mph 21.0 mph 44 % 0.00 in 888 W/m2
15:26 61.8 °F 38.0 °F 30.08 in NNE 10.0 mph 20.0 mph 42 % 0.00 in 851 W/m2
15:41 62.3 °F 38.0 °F 30.09 in North 12.0 mph 20.0 mph 40 % 0.00 in 763 W/m2
15:56 62.1 °F 37.0 °F 30.08 in NNE 7.0 mph 19.0 mph 40 % 0.00 in 819 W/m2
16:11 62.9 °F 39.0 °F 30.08 in North 9.0 mph 22.0 mph 41 % 0.00 in 705 W/m2
16:26 62.9 °F 37.0 °F 30.09 in North 12.0 mph 17.0 mph 39 % 0.00 in 724 W/m2
16:41 62.2 °F 36.0 °F 30.10 in East 13.0 mph 21.0 mph 38 % 0.00 in 656 W/m2
16:56 62.3 °F 37.0 °F 30.12 in NNE 2.0 mph 16.0 mph 39 % 0.00 in 570 W/m2
17:11 62.4 °F 36.0 °F 30.12 in NE 7.0 mph 15.0 mph 38 % 0.00 in 541 W/m2
17:26 62.5 °F 36.0 °F 30.12 in NNE 9.0 mph 18.0 mph 38 % 0.00 in 540 W/m2
17:41 62.2 °F 36.0 °F 30.12 in NE 13.0 mph 16.0 mph 38 % 0.00 in 533 W/m2
17:56 62.4 °F 36.0 °F 30.12 in NNE 7.0 mph 19.0 mph 37 % 0.00 in 350 W/m2
18:11 61.9 °F 36.0 °F 30.13 in NNE 9.0 mph 14.0 mph 39 % 0.00 in 404 W/m2
18:26 61.8 °F 36.0 °F 30.13 in NE 9.0 mph 16.0 mph 39 % 0.00 in 230 W/m2
18:41 61.4 °F 36.0 °F 30.13 in NE 5.0 mph 17.0 mph 39 % 0.00 in 188 W/m2
18:56 61.1 °F 35.0 °F 30.13 in NE 6.0 mph 15.0 mph 38 % 0.00 in 137 W/m2
19:11 60.9 °F 35.0 °F 30.12 in NNE 5.0 mph 13.0 mph 38 % 0.00 in 128 W/m2
19:26 60.9 °F 35.0 °F 30.13 in NE 5.0 mph 17.0 mph 38 % 0.00 in 100 W/m2
19:41 60.5 °F 35.0 °F 30.12 in NNE 5.0 mph 15.0 mph 38 % 0.00 in 79 W/m2
19:56 60.3 °F 35.0 °F 30.12 in NNE 8.0 mph 18.0 mph 39 % 0.00 in 67 W/m2
20:11 60.0 °F 35.0 °F 30.10 in NNE 5.0 mph 13.0 mph 39 % 0.00 in 51 W/m2
20:26 59.4 °F 35.0 °F 30.08 in NNE 8.0 mph 13.0 mph 40 % 0.00 in 28 W/m2
20:41 58.2 °F 35.0 °F 30.05 in NE 7.0 mph 15.0 mph 42 % 0.00 in 9 W/m2
20:56 57.7 °F 34.0 °F 30.07 in NNE 8.0 mph 13.0 mph 41 % 0.00 in 5 W/m2
21:11 57.0 °F 34.0 °F 30.09 in NE 4.0 mph 12.0 mph 42 % 0.00 in 0 W/m2
21:26 56.3 °F 34.0 °F 30.11 in NE 2.0 mph 6.0 mph 44 % 0.00 in 0 W/m2
21:41 55.5 °F 35.0 °F 30.12 in NE 3.0 mph 5.0 mph 46 % 0.00 in 0 W/m2
21:56 54.9 °F 35.0 °F 30.14 in NE 1.0 mph 4.0 mph 47 % 0.00 in 0 W/m2
22:11 54.4 °F 35.0 °F 30.15 in NNE 4.0 mph 6.0 mph 48 % 0.00 in 0 W/m2
22:26 54.0 °F 36.0 °F 30.15 in North 2.0 mph 5.0 mph 50 % 0.00 in 0 W/m2
22:42 53.3 °F 35.0 °F 30.16 in North 4.0 mph 5.0 mph 51 % 0.00 in 0 W/m2
22:56 52.7 °F 35.0 °F 30.17 in North 1.0 mph 3.0 mph 52 % 0.00 in 0 W/m2
23:11 52.0 °F 36.0 °F 30.18 in North 1.0 mph 4.0 mph 54 % 0.00 in 0 W/m2
23:26 51.3 °F 35.0 °F 30.18 in NNE 4.0 mph 6.0 mph 55 % 0.00 in 0 W/m2
23:41 50.5 °F 35.0 °F 30.17 in NNE 5.0 mph 6.0 mph 56 % 0.00 in 0 W/m2
23:56 50.2 °F 35.0 °F 30.18 in NNE 5.0 mph 8.0 mph 56 % 0.00 in 0 W/m2
Compliments of Weather Underground - 1 mb

35 Visitors online right now
Max visitors today: 102 at 11:00 am EDT
This month: 106 at 07-16-2017 08:33 am EDT
This year: 117 at 06-05-2017 05:49 pm EDT
All time: 117 at 06-05-2017 05:49 pm EDT
See Who is Online